Watervliet, New York
Current Conditions -  °F | °C
As of 6:51 AM on Thursday 29 Jan 2015 (Local Time) from KALB Reporting Station
Few Clouds Few Clouds  
Wind Chill:   Ceiling: Unl
Heat Index:   Visibility: 10mi
Dew Point: -6°   Wind: 3mph
Humidity: 76%   Direction: 20°NNE
Pressure: 30.34"   Gusts: NA
Location:  42.73°N, 73.7°W
Report Text: KALB 291151Z 02003KT 10SM FEW250 M18/M21 A3034 RMK AO2 SLP281 4/004 T11781211 11156 21200 55001
Loading
Personal Weather Stations






























Interactive Weather Map New forecast layout! Learn more

10-Day Weather Forecast

Advertisements
Track Severe Weather on mobile